sensor_id;sensor_type;location;lat;lon;timestamp;temperature;humidity
21108;DHT22;10712;52.944;9.098;2023-01-15T00:01:52;7.60;92.20
21108;DHT22;10712;52.944;9.098;2023-01-15T00:04:17;7.60;92.00
21108;DHT22;10712;52.944;9.098;2023-01-15T00:06:43;7.60;91.80
21108;DHT22;10712;52.944;9.098;2023-01-15T00:09:13;7.60;91.50
21108;DHT22;10712;52.944;9.098;2023-01-15T00:11:40;7.60;91.30
21108;DHT22;10712;52.944;9.098;2023-01-15T00:14:06;7.60;91.30
21108;DHT22;10712;52.944;9.098;2023-01-15T00:16:32;7.60;91.30
21108;DHT22;10712;52.944;9.098;2023-01-15T00:18:59;7.60;91.20
21108;DHT22;10712;52.944;9.098;2023-01-15T00:21:27;7.50;91.10
21108;DHT22;10712;52.944;9.098;2023-01-15T00:23:53;7.50;91.20
21108;DHT22;10712;52.944;9.098;2023-01-15T00:26:39;7.50;91.20
21108;DHT22;10712;52.944;9.098;2023-01-15T00:29:24;7.50;91.10
21108;DHT22;10712;52.944;9.098;2023-01-15T00:31:53;7.50;91.00
21108;DHT22;10712;52.944;9.098;2023-01-15T00:34:21;7.50;91.00
21108;DHT22;10712;52.944;9.098;2023-01-15T00:36:48;7.50;91.10
21108;DHT22;10712;52.944;9.098;2023-01-15T00:39:13;7.50;91.00
21108;DHT22;10712;52.944;9.098;2023-01-15T00:41:39;7.50;90.90
21108;DHT22;10712;52.944;9.098;2023-01-15T00:44:05;7.50;90.70
21108;DHT22;10712;52.944;9.098;2023-01-15T00:46:31;7.50;90.40
21108;DHT22;10712;52.944;9.098;2023-01-15T00:48:57;7.50;90.20
21108;DHT22;10712;52.944;9.098;2023-01-15T00:51:23;7.50;89.80
21108;DHT22;10712;52.944;9.098;2023-01-15T00:53:48;7.40;89.80
21108;DHT22;10712;52.944;9.098;2023-01-15T00:56:14;7.40;89.80
21108;DHT22;10712;52.944;9.098;2023-01-15T00:58:40;7.40;89.80
21108;DHT22;10712;52.944;9.098;2023-01-15T01:01:07;7.40;89.60
21108;DHT22;10712;52.944;9.098;2023-01-15T01:03:33;7.40;89.50
21108;DHT22;10712;52.944;9.098;2023-01-15T01:06:02;7.40;89.40
21108;DHT22;10712;52.944;9.098;2023-01-15T01:08:28;7.40;89.30
21108;DHT22;10712;52.944;9.098;2023-01-15T01:11:02;7.40;89.10
21108;DHT22;10712;52.944;9.098;2023-01-15T01:13:33;7.40;88.90
21108;DHT22;10712;52.944;9.098;2023-01-15T01:15:59;7.40;88.90
21108;DHT22;10712;52.944;9.098;2023-01-15T01:18:26;7.40;88.90
21108;DHT22;10712;52.944;9.098;2023-01-15T01:20:52;7.30;89.00
21108;DHT22;10712;52.944;9.098;2023-01-15T01:23:18;7.30;88.90
21108;DHT22;10712;52.944;9.098;2023-01-15T01:25:44;7.30;88.90
21108;DHT22;10712;52.944;9.098;2023-01-15T01:28:10;7.30;88.80
21108;DHT22;10712;52.944;9.098;2023-01-15T01:30:37;7.30;88.70
21108;DHT22;10712;52.944;9.098;2023-01-15T01:33:04;7.30;88.70
21108;DHT22;10712;52.944;9.098;2023-01-15T01:35:32;7.30;88.70
21108;DHT22;10712;52.944;9.098;2023-01-15T01:37:59;7.30;88.50
21108;DHT22;10712;52.944;9.098;2023-01-15T01:40:25;7.30;88.30
21108;DHT22;10712;52.944;9.098;2023-01-15T01:42:51;7.30;88.30
21108;DHT22;10712;52.944;9.098;2023-01-15T01:45:21;7.20;88.30
21108;DHT22;10712;52.944;9.098;2023-01-15T01:47:54;7.20;88.30
21108;DHT22;10712;52.944;9.098;2023-01-15T01:50:25;7.30;88.10
21108;DHT22;10712;52.944;9.098;2023-01-15T01:53:04;7.30;88.00
21108;DHT22;10712;52.944;9.098;2023-01-15T01:55:36;7.20;88.00
21108;DHT22;10712;52.944;9.098;2023-01-15T01:58:04;7.20;87.80
21108;DHT22;10712;52.944;9.098;2023-01-15T02:00:34;7.20;87.70
21108;DHT22;10712;52.944;9.098;2023-01-15T02:03:04;7.20;87.80
21108;DHT22;10712;52.944;9.098;2023-01-15T02:05:39;7.30;87.60
21108;DHT22;10712;52.944;9.098;2023-01-15T02:08:10;7.30;87.60
21108;DHT22;10712;52.944;9.098;2023-01-15T02:10:36;7.20;87.60
21108;DHT22;10712;52.944;9.098;2023-01-15T02:13:15;7.20;87.60
21108;DHT22;10712;52.944;9.098;2023-01-15T02:16:02;7.20;87.60
21108;DHT22;10712;52.944;9.098;2023-01-15T02:18:44;7.20;87.50
21108;DHT22;10712;52.944;9.098;2023-01-15T02:24:16;7.20;87.40
21108;DHT22;10712;52.944;9.098;2023-01-15T02:27:12;7.20;87.40
21108;DHT22;10712;52.944;9.098;2023-01-15T02:29:46;7.20;87.40
21108;DHT22;10712;52.944;9.098;2023-01-15T02:37:58;7.20;87.00
21108;DHT22;10712;52.944;9.098;2023-01-15T02:40:27;7.20;86.70
21108;DHT22;10712;52.944;9.098;2023-01-15T02:42:56;7.20;86.60
21108;DHT22;10712;52.944;9.098;2023-01-15T02:45:27;7.20;86.60
21108;DHT22;10712;52.944;9.098;2023-01-15T02:48:05;7.20;86.60
21108;DHT22;10712;52.944;9.098;2023-01-15T02:50:39;7.20;86.70
21108;DHT22;10712;52.944;9.098;2023-01-15T02:53:12;7.20;86.60
21108;DHT22;10712;52.944;9.098;2023-01-15T02:55:45;7.20;86.40
21108;DHT22;10712;52.944;9.098;2023-01-15T02:58:23;7.20;86.30
21108;DHT22;10712;52.944;9.098;2023-01-15T03:00:53;7.20;86.30
21108;DHT22;10712;52.944;9.098;2023-01-15T03:06:48;7.20;86.30
21108;DHT22;10712;52.944;9.098;2023-01-15T03:09:23;7.20;86.20
21108;DHT22;10712;52.944;9.098;2023-01-15T03:15:02;7.20;86.20
21108;DHT22;10712;52.944;9.098;2023-01-15T03:17:53;7.20;85.80
21108;DHT22;10712;52.944;9.098;2023-01-15T03:20:24;7.30;85.20
21108;DHT22;10712;52.944;9.098;2023-01-15T03:22:57;7.20;85.30
21108;DHT22;10712;52.944;9.098;2023-01-15T03:25:34;7.20;85.40
21108;DHT22;10712;52.944;9.098;2023-01-15T03:28:04;7.20;85.40
21108;DHT22;10712;52.944;9.098;2023-01-15T03:30:32;7.20;85.10
21108;DHT22;10712;52.944;9.098;2023-01-15T03:32:58;7.20;85.10
21108;DHT22;10712;52.944;9.098;2023-01-15T03:38:34;7.20;84.90
21108;DHT22;10712;52.944;9.098;2023-01-15T03:41:31;7.20;85.00
21108;DHT22;10712;52.944;9.098;2023-01-15T03:44:31;7.20;85.10
21108;DHT22;10712;52.944;9.098;2023-01-15T03:47:12;7.20;85.40
21108;DHT22;10712;52.944;9.098;2023-01-15T03:50:02;7.20;84.90
21108;DHT22;10712;52.944;9.098;2023-01-15T03:58:34;7.10;85.20
21108;DHT22;10712;52.944;9.098;2023-01-15T04:01:15;7.10;85.20
21108;DHT22;10712;52.944;9.098;2023-01-15T04:03:49;7.20;84.60
21108;DHT22;10712;52.944;9.098;2023-01-15T04:06:19;7.10;84.80
21108;DHT22;10712;52.944;9.098;2023-01-15T04:08:46;7.10;84.90
21108;DHT22;10712;52.944;9.098;2023-01-15T04:11:21;7.10;85.30
21108;DHT22;10712;52.944;9.098;2023-01-15T04:13:51;7.10;85.50
21108;DHT22;10712;52.944;9.098;2023-01-15T04:16:39;7.10;85.40
21108;DHT22;10712;52.944;9.098;2023-01-15T04:19:06;7.10;85.40
21108;DHT22;10712;52.944;9.098;2023-01-15T04:21:35;7.10;85.40
21108;DHT22;10712;52.944;9.098;2023-01-15T04:24:01;7.10;85.40
21108;DHT22;10712;52.944;9.098;2023-01-15T04:26:27;7.10;85.50
21108;DHT22;10712;52.944;9.098;2023-01-15T04:28:53;7.10;85.50
21108;DHT22;10712;52.944;9.098;2023-01-15T04:31:19;7.10;85.70
21108;DHT22;10712;52.944;9.098;2023-01-15T04:33:45;7.10;85.60
21108;DHT22;10712;52.944;9.098;2023-01-15T04:36:11;7.10;85.70
21108;DHT22;10712;52.944;9.098;2023-01-15T04:38:38;7.10;85.90
21108;DHT22;10712;52.944;9.098;2023-01-15T04:41:05;7.00;86.00
21108;DHT22;10712;52.944;9.098;2023-01-15T04:43:49;7.10;85.90
21108;DHT22;10712;52.944;9.098;2023-01-15T04:46:37;7.10;85.90
21108;DHT22;10712;52.944;9.098;2023-01-15T04:49:15;7.00;85.80
21108;DHT22;10712;52.944;9.098;2023-01-15T04:51:43;7.00;85.80
21108;DHT22;10712;52.944;9.098;2023-01-15T04:54:10;7.00;85.90
21108;DHT22;10712;52.944;9.098;2023-01-15T04:56:43;7.00;86.00
21108;DHT22;10712;52.944;9.098;2023-01-15T04:59:13;6.90;85.80
21108;DHT22;10712;52.944;9.098;2023-01-15T05:01:40;6.90;85.90
21108;DHT22;10712;52.944;9.098;2023-01-15T05:04:06;6.90;86.10
21108;DHT22;10712;52.944;9.098;2023-01-15T05:06:32;6.90;85.80
21108;DHT22;10712;52.944;9.098;2023-01-15T05:08:59;6.90;85.90
21108;DHT22;10712;52.944;9.098;2023-01-15T05:11:27;6.80;86.00
21108;DHT22;10712;52.944;9.098;2023-01-15T05:13:54;6.80;86.10
21108;DHT22;10712;52.944;9.098;2023-01-15T05:16:25;6.80;86.20
21108;DHT22;10712;52.944;9.098;2023-01-15T05:18:53;6.80;86.30
21108;DHT22;10712;52.944;9.098;2023-01-15T05:21:23;6.80;86.30
21108;DHT22;10712;52.944;9.098;2023-01-15T05:23:56;6.80;86.50
21108;DHT22;10712;52.944;9.098;2023-01-15T05:26:26;6.70;86.40
21108;DHT22;10712;52.944;9.098;2023-01-15T05:28:54;6.70;86.50
21108;DHT22;10712;52.944;9.098;2023-01-15T05:31:22;6.70;86.50
21108;DHT22;10712;52.944;9.098;2023-01-15T05:33:49;6.70;86.60
21108;DHT22;10712;52.944;9.098;2023-01-15T05:36:19;6.70;86.60
21108;DHT22;10712;52.944;9.098;2023-01-15T05:38:46;6.70;86.50
21108;DHT22;10712;52.944;9.098;2023-01-15T05:41:15;6.70;86.50
21108;DHT22;10712;52.944;9.098;2023-01-15T05:44:05;6.70;86.60
21108;DHT22;10712;52.944;9.098;2023-01-15T05:46:35;6.70;86.70
21108;DHT22;10712;52.944;9.098;2023-01-15T05:49:05;6.70;86.60
21108;DHT22;10712;52.944;9.098;2023-01-15T05:51:34;6.70;86.60
21108;DHT22;10712;52.944;9.098;2023-01-15T05:54:01;6.70;86.50
21108;DHT22;10712;52.944;9.098;2023-01-15T05:56:28;6.70;86.40
21108;DHT22;10712;52.944;9.098;2023-01-15T05:58:54;6.70;86.40
21108;DHT22;10712;52.944;9.098;2023-01-15T06:01:20;6.70;86.30
21108;DHT22;10712;52.944;9.098;2023-01-15T06:03:46;6.70;86.10
21108;DHT22;10712;52.944;9.098;2023-01-15T06:06:15;6.70;85.90
21108;DHT22;10712;52.944;9.098;2023-01-15T06:08:43;6.70;85.60
21108;DHT22;10712;52.944;9.098;2023-01-15T06:11:10;6.70;85.60
21108;DHT22;10712;52.944;9.098;2023-01-15T06:13:38;6.70;85.50
21108;DHT22;10712;52.944;9.098;2023-01-15T06:16:05;6.60;85.50
21108;DHT22;10712;52.944;9.098;2023-01-15T06:18:32;6.60;85.60
21108;DHT22;10712;52.944;9.098;2023-01-15T06:21:04;6.60;85.40
21108;DHT22;10712;52.944;9.098;2023-01-15T06:23:35;6.60;85.30
21108;DHT22;10712;52.944;9.098;2023-01-15T06:26:04;6.60;85.30
21108;DHT22;10712;52.944;9.098;2023-01-15T06:28:32;6.60;84.90
21108;DHT22;10712;52.944;9.098;2023-01-15T06:30:58;6.60;84.60
21108;DHT22;10712;52.944;9.098;2023-01-15T06:33:25;6.60;84.10
21108;DHT22;10712;52.944;9.098;2023-01-15T06:35:52;6.70;83.70
21108;DHT22;10712;52.944;9.098;2023-01-15T06:38:17;6.70;83.90
21108;DHT22;10712;52.944;9.098;2023-01-15T06:40:43;6.70;83.60
21108;DHT22;10712;52.944;9.098;2023-01-15T06:43:10;6.70;83.50
21108;DHT22;10712;52.944;9.098;2023-01-15T06:45:55;6.70;83.30
21108;DHT22;10712;52.944;9.098;2023-01-15T06:48:50;6.70;83.10
21108;DHT22;10712;52.944;9.098;2023-01-15T06:51:16;6.70;82.90
21108;DHT22;10712;52.944;9.098;2023-01-15T06:53:44;6.60;82.90
21108;DHT22;10712;52.944;9.098;2023-01-15T06:56:12;6.60;82.90
21108;DHT22;10712;52.944;9.098;2023-01-15T06:58:42;6.70;82.50
21108;DHT22;10712;52.944;9.098;2023-01-15T07:01:10;6.70;82.20
21108;DHT22;10712;52.944;9.098;2023-01-15T07:03:37;6.70;82.20
21108;DHT22;10712;52.944;9.098;2023-01-15T07:06:11;6.60;82.40
21108;DHT22;10712;52.944;9.098;2023-01-15T07:08:38;6.60;82.40
21108;DHT22;10712;52.944;9.098;2023-01-15T07:11:07;6.60;82.30
21108;DHT22;10712;52.944;9.098;2023-01-15T07:13:34;6.60;82.20
21108;DHT22;10712;52.944;9.098;2023-01-15T07:16:02;6.60;82.00
21108;DHT22;10712;52.944;9.098;2023-01-15T07:18:30;6.60;82.10
21108;DHT22;10712;52.944;9.098;2023-01-15T07:20:58;6.60;82.30
21108;DHT22;10712;52.944;9.098;2023-01-15T07:23:24;6.60;81.60
21108;DHT22;10712;52.944;9.098;2023-01-15T07:25:52;6.60;81.30
21108;DHT22;10712;52.944;9.098;2023-01-15T07:28:19;6.60;81.50
21108;DHT22;10712;52.944;9.098;2023-01-15T07:30:46;6.60;81.40
21108;DHT22;10712;52.944;9.098;2023-01-15T07:33:12;6.60;81.40
21108;DHT22;10712;52.944;9.098;2023-01-15T07:35:38;6.60;81.60
21108;DHT22;10712;52.944;9.098;2023-01-15T07:38:04;6.60;81.30
21108;DHT22;10712;52.944;9.098;2023-01-15T07:40:29;6.60;81.20
21108;DHT22;10712;52.944;9.098;2023-01-15T07:42:55;6.60;81.40
21108;DHT22;10712;52.944;9.098;2023-01-15T07:45:39;6.50;81.60
21108;DHT22;10712;52.944;9.098;2023-01-15T07:48:26;6.50;81.70
21108;DHT22;10712;52.944;9.098;2023-01-15T07:51:10;6.50;81.70
21108;DHT22;10712;52.944;9.098;2023-01-15T07:53:36;6.50;81.60
21108;DHT22;10712;52.944;9.098;2023-01-15T07:56:02;6.50;81.60
21108;DHT22;10712;52.944;9.098;2023-01-15T07:58:28;6.50;81.80
21108;DHT22;10712;52.944;9.098;2023-01-15T08:00:54;6.50;81.70
21108;DHT22;10712;52.944;9.098;2023-01-15T08:03:19;6.50;81.50
21108;DHT22;10712;52.944;9.098;2023-01-15T08:05:45;6.50;81.40
21108;DHT22;10712;52.944;9.098;2023-01-15T08:08:15;6.60;80.10
21108;DHT22;10712;52.944;9.098;2023-01-15T08:10:43;6.60;79.10
21108;DHT22;10712;52.944;9.098;2023-01-15T08:13:28;6.70;76.60
21108;DHT22;10712;52.944;9.098;2023-01-15T08:16:13;6.70;76.40
21108;DHT22;10712;52.944;9.098;2023-01-15T08:18:40;6.70;75.30
21108;DHT22;10712;52.944;9.098;2023-01-15T08:21:05;6.60;75.80
21108;DHT22;10712;52.944;9.098;2023-01-15T08:23:37;6.60;76.00
21108;DHT22;10712;52.944;9.098;2023-01-15T08:26:02;6.50;77.00
21108;DHT22;10712;52.944;9.098;2023-01-15T08:28:30;6.40;77.10
21108;DHT22;10712;52.944;9.098;2023-01-15T08:30:56;6.30;77.30
21108;DHT22;10712;52.944;9.098;2023-01-15T08:33:22;6.20;75.90
21108;DHT22;10712;52.944;9.098;2023-01-15T08:35:47;6.20;74.10
21108;DHT22;10712;52.944;9.098;2023-01-15T08:38:13;6.10;73.40
21108;DHT22;10712;52.944;9.098;2023-01-15T08:40:39;6.00;74.00
21108;DHT22;10712;52.944;9.098;2023-01-15T08:43:23;6.00;74.50
21108;DHT22;10712;52.944;9.098;2023-01-15T08:45:50;5.90;75.60
21108;DHT22;10712;52.944;9.098;2023-01-15T08:48:17;5.90;76.10
21108;DHT22;10712;52.944;9.098;2023-01-15T08:50:42;5.80;77.10
21108;DHT22;10712;52.944;9.098;2023-01-15T08:53:08;5.80;78.00
21108;DHT22;10712;52.944;9.098;2023-01-15T08:55:36;5.80;78.50
21108;DHT22;10712;52.944;9.098;2023-01-15T08:58:02;5.70;79.10
21108;DHT22;10712;52.944;9.098;2023-01-15T09:00:27;5.60;79.80
21108;DHT22;10712;52.944;9.098;2023-01-15T09:02:53;5.60;80.20
21108;DHT22;10712;52.944;9.098;2023-01-15T09:05:19;5.50;80.60
21108;DHT22;10712;52.944;9.098;2023-01-15T09:07:45;5.50;80.90
21108;DHT22;10712;52.944;9.098;2023-01-15T09:10:10;5.40;81.40
21108;DHT22;10712;52.944;9.098;2023-01-15T09:12:36;5.40;81.80
21108;DHT22;10712;52.944;9.098;2023-01-15T09:15:02;5.40;81.70
21108;DHT22;10712;52.944;9.098;2023-01-15T09:17:29;5.30;81.80
21108;DHT22;10712;52.944;9.098;2023-01-15T09:19:55;5.30;82.20
21108;DHT22;10712;52.944;9.098;2023-01-15T09:22:21;5.20;82.60
21108;DHT22;10712;52.944;9.098;2023-01-15T09:24:47;5.20;82.80
21108;DHT22;10712;52.944;9.098;2023-01-15T09:27:13;5.20;83.00
21108;DHT22;10712;52.944;9.098;2023-01-15T09:29:38;5.20;83.30
21108;DHT22;10712;52.944;9.098;2023-01-15T09:32:04;5.20;83.40
21108;DHT22;10712;52.944;9.098;2023-01-15T09:34:32;5.20;83.40
21108;DHT22;10712;52.944;9.098;2023-01-15T09:36:58;5.20;83.50
21108;DHT22;10712;52.944;9.098;2023-01-15T09:39:23;5.20;83.70
21108;DHT22;10712;52.944;9.098;2023-01-15T09:42:16;5.30;83.40
21108;DHT22;10712;52.944;9.098;2023-01-15T09:45:27;5.30;83.00
21108;DHT22;10712;52.944;9.098;2023-01-15T09:48:27;5.40;82.80
21108;DHT22;10712;52.944;9.098;2023-01-15T09:51:37;5.50;81.80
21108;DHT22;10712;52.944;9.098;2023-01-15T09:57:18;5.80;80.40
21108;DHT22;10712;52.944;9.098;2023-01-15T09:59:48;5.90;79.90
21108;DHT22;10712;52.944;9.098;2023-01-15T10:09:17;5.90;79.50
21108;DHT22;10712;52.944;9.098;2023-01-15T10:11:57;5.90;79.90
21108;DHT22;10712;52.944;9.098;2023-01-15T10:14:51;5.90;80.30
21108;DHT22;10712;52.944;9.098;2023-01-15T10:17:34;5.90;80.40
21108;DHT22;10712;52.944;9.098;2023-01-15T10:20:21;5.80;80.60
21108;DHT22;10712;52.944;9.098;2023-01-15T10:29:16;5.90;80.40
21108;DHT22;10712;52.944;9.098;2023-01-15T10:37:46;6.10;79.60
21108;DHT22;10712;52.944;9.098;2023-01-15T10:45:46;6.20;79.20
21108;DHT22;10712;52.944;9.098;2023-01-15T10:48:24;6.20;78.90
21108;DHT22;10712;52.944;9.098;2023-01-15T10:51:01;6.30;78.30
21108;DHT22;10712;52.944;9.098;2023-01-15T10:53:41;6.30;77.80
21108;DHT22;10712;52.944;9.098;2023-01-15T10:56:19;6.40;76.50
21108;DHT22;10712;52.944;9.098;2023-01-15T10:59:00;6.50;76.40
21108;DHT22;10712;52.944;9.098;2023-01-15T11:01:34;6.50;76.60
21108;DHT22;10712;52.944;9.098;2023-01-15T11:04:00;6.60;76.60
21108;DHT22;10712;52.944;9.098;2023-01-15T11:06:29;6.60;75.50
21108;DHT22;10712;52.944;9.098;2023-01-15T11:08:57;6.70;74.30
21108;DHT22;10712;52.944;9.098;2023-01-15T11:11:45;6.80;74.50
21108;DHT22;10712;52.944;9.098;2023-01-15T11:14:37;6.80;74.80
21108;DHT22;10712;52.944;9.098;2023-01-15T11:17:35;6.80;75.10
21108;DHT22;10712;52.944;9.098;2023-01-15T11:23:11;6.90;73.90
21108;DHT22;10712;52.944;9.098;2023-01-15T11:25:53;6.90;73.80
21108;DHT22;10712;52.944;9.098;2023-01-15T11:28:33;7.00;73.10
21108;DHT22;10712;52.944;9.098;2023-01-15T11:31:05;7.00;72.90
21108;DHT22;10712;52.944;9.098;2023-01-15T11:33:32;7.00;72.80
21108;DHT22;10712;52.944;9.098;2023-01-15T11:36:07;7.10;72.10
21108;DHT22;10712;52.944;9.098;2023-01-15T11:38:47;7.10;72.40
21108;DHT22;10712;52.944;9.098;2023-01-15T11:41:23;7.10;72.70
21108;DHT22;10712;52.944;9.098;2023-01-15T11:44:19;7.10;72.20
21108;DHT22;10712;52.944;9.098;2023-01-15T11:47:10;7.20;71.60
21108;DHT22;10712;52.944;9.098;2023-01-15T11:49:56;7.20;72.10
21108;DHT22;10712;52.944;9.098;2023-01-15T11:52:44;7.20;71.70
21108;DHT22;10712;52.944;9.098;2023-01-15T11:55:17;7.20;72.40
21108;DHT22;10712;52.944;9.098;2023-01-15T11:57:46;7.20;72.90
21108;DHT22;10712;52.944;9.098;2023-01-15T12:00:29;7.30;72.40
21108;DHT22;10712;52.944;9.098;2023-01-15T12:03:10;7.30;72.20
21108;DHT22;10712;52.944;9.098;2023-01-15T12:05:52;7.30;72.20
21108;DHT22;10712;52.944;9.098;2023-01-15T12:10:58;7.40;71.50
21108;DHT22;10712;52.944;9.098;2023-01-15T12:16:18;7.40;70.90
21108;DHT22;10712;52.944;9.098;2023-01-15T12:18:57;7.50;70.20
21108;DHT22;10712;52.944;9.098;2023-01-15T12:33:16;7.40;70.00
21108;DHT22;10712;52.944;9.098;2023-01-15T12:36:36;7.40;70.10
21108;DHT22;10712;52.944;9.098;2023-01-15T12:39:59;7.40;70.70
21108;DHT22;10712;52.944;9.098;2023-01-15T12:42:09;7.40;70.80
21108;DHT22;10712;52.944;9.098;2023-01-15T12:44:59;7.40;71.30
21108;DHT22;10712;52.944;9.098;2023-01-15T12:47:43;7.50;70.70
21108;DHT22;10712;52.944;9.098;2023-01-15T12:53:13;7.50;70.40
21108;DHT22;10712;52.944;9.098;2023-01-15T13:02:20;7.50;71.10
21108;DHT22;10712;52.944;9.098;2023-01-15T13:05:17;7.50;71.20
21108;DHT22;10712;52.944;9.098;2023-01-15T13:08:10;7.50;72.20
21108;DHT22;10712;52.944;9.098;2023-01-15T13:10:44;7.40;73.00
21108;DHT22;10712;52.944;9.098;2023-01-15T13:13:18;7.40;72.60
21108;DHT22;10712;52.944;9.098;2023-01-15T13:16:17;7.40;73.10
21108;DHT22;10712;52.944;9.098;2023-01-15T13:21:41;7.40;72.20
21108;DHT22;10712;52.944;9.098;2023-01-15T13:24:22;7.50;71.60
21108;DHT22;10712;52.944;9.098;2023-01-15T13:30:20;7.60;71.30
21108;DHT22;10712;52.944;9.098;2023-01-15T13:32:54;7.50;71.50
21108;DHT22;10712;52.944;9.098;2023-01-15T13:35:31;7.50;71.40
21108;DHT22;10712;52.944;9.098;2023-01-15T13:38:05;7.50;71.40
21108;DHT22;10712;52.944;9.098;2023-01-15T13:40:53;7.50;71.70
21108;DHT22;10712;52.944;9.098;2023-01-15T13:43:33;7.50;71.80
21108;DHT22;10712;52.944;9.098;2023-01-15T13:46:06;7.50;71.80
21108;DHT22;10712;52.944;9.098;2023-01-15T13:48:45;7.50;71.10
21108;DHT22;10712;52.944;9.098;2023-01-15T13:51:30;7.50;71.50
21108;DHT22;10712;52.944;9.098;2023-01-15T13:54:03;7.50;71.70
21108;DHT22;10712;52.944;9.098;2023-01-15T13:56:35;7.50;71.90
21108;DHT22;10712;52.944;9.098;2023-01-15T13:59:03;7.50;71.60
21108;DHT22;10712;52.944;9.098;2023-01-15T14:01:33;7.50;71.40
21108;DHT22;10712;52.944;9.098;2023-01-15T14:04:13;7.50;71.30
21108;DHT22;10712;52.944;9.098;2023-01-15T14:06:49;7.50;71.30
21108;DHT22;10712;52.944;9.098;2023-01-15T14:11:57;7.50;71.50
21108;DHT22;10712;52.944;9.098;2023-01-15T14:17:49;7.50;71.30
21108;DHT22;10712;52.944;9.098;2023-01-15T14:26:40;7.50;72.80
21108;DHT22;10712;52.944;9.098;2023-01-15T14:29:49;7.40;73.00
21108;DHT22;10712;52.944;9.098;2023-01-15T14:32:50;7.40;73.30
21108;DHT22;10712;52.944;9.098;2023-01-15T14:35:35;7.40;73.00
21108;DHT22;10712;52.944;9.098;2023-01-15T14:38:07;7.40;72.70
21108;DHT22;10712;52.944;9.098;2023-01-15T14:40:54;7.40;72.60
21108;DHT22;10712;52.944;9.098;2023-01-15T14:43:28;7.40;72.70
21108;DHT22;10712;52.944;9.098;2023-01-15T14:46:25;7.40;71.70
21108;DHT22;10712;52.944;9.098;2023-01-15T14:48:59;7.50;71.80
21108;DHT22;10712;52.944;9.098;2023-01-15T14:51:31;7.50;71.90
21108;DHT22;10712;52.944;9.098;2023-01-15T14:54:07;7.50;71.40
21108;DHT22;10712;52.944;9.098;2023-01-15T14:56:37;7.50;71.60
21108;DHT22;10712;52.944;9.098;2023-01-15T14:59:25;7.50;71.80
21108;DHT22;10712;52.944;9.098;2023-01-15T15:02:00;7.50;72.20
21108;DHT22;10712;52.944;9.098;2023-01-15T15:04:43;7.40;72.50
21108;DHT22;10712;52.944;9.098;2023-01-15T15:07:16;7.40;73.00
21108;DHT22;10712;52.944;9.098;2023-01-15T15:09:47;7.40;73.30
21108;DHT22;10712;52.944;9.098;2023-01-15T15:15:18;7.30;74.20
21108;DHT22;10712;52.944;9.098;2023-01-15T15:18:12;7.30;74.50
21108;DHT22;10712;52.944;9.098;2023-01-15T15:21:09;7.30;74.40
21108;DHT22;10712;52.944;9.098;2023-01-15T15:26:52;7.30;75.80
21108;DHT22;10712;52.944;9.098;2023-01-15T15:29:19;7.20;76.30
21108;DHT22;10712;52.944;9.098;2023-01-15T15:31:51;7.20;76.20
21108;DHT22;10712;52.944;9.098;2023-01-15T15:34:30;7.20;76.30
21108;DHT22;10712;52.944;9.098;2023-01-15T15:37:01;7.10;76.60
21108;DHT22;10712;52.944;9.098;2023-01-15T15:39:59;7.10;77.00
21108;DHT22;10712;52.944;9.098;2023-01-15T15:42:33;7.00;77.10
21108;DHT22;10712;52.944;9.098;2023-01-15T15:45:24;7.00;77.40
21108;DHT22;10712;52.944;9.098;2023-01-15T15:48:18;7.00;77.50
21108;DHT22;10712;52.944;9.098;2023-01-15T15:54:21;7.00;77.70
21108;DHT22;10712;52.944;9.098;2023-01-15T15:56:52;7.00;77.10
21108;DHT22;10712;52.944;9.098;2023-01-15T15:59:33;7.00;77.20
21108;DHT22;10712;52.944;9.098;2023-01-15T16:02:27;7.00;76.90
21108;DHT22;10712;52.944;9.098;2023-01-15T16:05:00;7.00;77.30
21108;DHT22;10712;52.944;9.098;2023-01-15T16:07:33;7.00;78.60
21108;DHT22;10712;52.944;9.098;2023-01-15T16:10:27;7.00;78.90
21108;DHT22;10712;52.944;9.098;2023-01-15T16:12:58;7.00;78.70
21108;DHT22;10712;52.944;9.098;2023-01-15T16:15:32;7.00;78.80
21108;DHT22;10712;52.944;9.098;2023-01-15T16:18:01;7.00;78.80
21108;DHT22;10712;52.944;9.098;2023-01-15T16:20:28;6.90;79.10
21108;DHT22;10712;52.944;9.098;2023-01-15T16:23:02;7.00;79.10
21108;DHT22;10712;52.944;9.098;2023-01-15T16:25:34;6.90;79.40
21108;DHT22;10712;52.944;9.098;2023-01-15T16:28:03;6.90;79.70
21108;DHT22;10712;52.944;9.098;2023-01-15T16:30:30;6.80;80.20
21108;DHT22;10712;52.944;9.098;2023-01-15T16:33:16;6.80;80.40
21108;DHT22;10712;52.944;9.098;2023-01-15T16:35:43;6.80;80.50
21108;DHT22;10712;52.944;9.098;2023-01-15T16:38:16;6.80;80.80
21108;DHT22;10712;52.944;9.098;2023-01-15T16:40:45;6.80;81.30
21108;DHT22;10712;52.944;9.098;2023-01-15T16:43:20;6.70;81.60
21108;DHT22;10712;52.944;9.098;2023-01-15T16:50:50;6.60;83.80
21108;DHT22;10712;52.944;9.098;2023-01-15T16:56:01;6.50;85.30
21108;DHT22;10712;52.944;9.098;2023-01-15T17:04:00;6.20;86.90
21108;DHT22;10712;52.944;9.098;2023-01-15T17:06:26;6.20;87.20
21108;DHT22;10712;52.944;9.098;2023-01-15T17:08:53;6.10;87.70
21108;DHT22;10712;52.944;9.098;2023-01-15T17:11:25;6.10;87.70
21108;DHT22;10712;52.944;9.098;2023-01-15T17:14:22;6.00;87.80
21108;DHT22;10712;52.944;9.098;2023-01-15T17:17:20;6.00;87.40
21108;DHT22;10712;52.944;9.098;2023-01-15T17:19:50;6.00;87.60
21108;DHT22;10712;52.944;9.098;2023-01-15T17:22:25;5.90;87.70
21108;DHT22;10712;52.944;9.098;2023-01-15T17:24:56;5.90;88.10
21108;DHT22;10712;52.944;9.098;2023-01-15T17:27:24;5.80;88.30
21108;DHT22;10712;52.944;9.098;2023-01-15T17:29:52;5.80;88.50
21108;DHT22;10712;52.944;9.098;2023-01-15T17:32:32;5.70;88.70
21108;DHT22;10712;52.944;9.098;2023-01-15T17:35:24;5.70;88.80
21108;DHT22;10712;52.944;9.098;2023-01-15T17:37:52;5.70;88.90
21108;DHT22;10712;52.944;9.098;2023-01-15T17:40:19;5.70;88.90
21108;DHT22;10712;52.944;9.098;2023-01-15T17:42:45;5.60;89.00
21108;DHT22;10712;52.944;9.098;2023-01-15T17:45:18;5.60;89.10
21108;DHT22;10712;52.944;9.098;2023-01-15T17:47:46;5.60;89.10
21108;DHT22;10712;52.944;9.098;2023-01-15T17:50:13;5.50;89.40
21108;DHT22;10712;52.944;9.098;2023-01-15T17:52:39;5.50;89.50
21108;DHT22;10712;52.944;9.098;2023-01-15T17:55:12;5.50;89.40
21108;DHT22;10712;52.944;9.098;2023-01-15T17:57:58;5.50;89.30
21108;DHT22;10712;52.944;9.098;2023-01-15T18:00:43;5.50;88.90
21108;DHT22;10712;52.944;9.098;2023-01-15T18:03:28;5.40;89.00
21108;DHT22;10712;52.944;9.098;2023-01-15T18:06:14;5.40;89.00
21108;DHT22;10712;52.944;9.098;2023-01-15T18:08:45;5.40;89.20
21108;DHT22;10712;52.944;9.098;2023-01-15T18:11:14;5.40;89.10
21108;DHT22;10712;52.944;9.098;2023-01-15T18:13:39;5.40;89.30
21108;DHT22;10712;52.944;9.098;2023-01-15T18:16:07;5.40;89.40
21108;DHT22;10712;52.944;9.098;2023-01-15T18:18:33;5.40;89.40
21108;DHT22;10712;52.944;9.098;2023-01-15T18:21:00;5.40;89.50
21108;DHT22;10712;52.944;9.098;2023-01-15T18:23:27;5.40;89.50
21108;DHT22;10712;52.944;9.098;2023-01-15T18:25:54;5.40;89.40
21108;DHT22;10712;52.944;9.098;2023-01-15T18:28:20;5.40;89.30